Time;durP1;ratioP1;P1;durP2;ratioP2;P2;SDS_P1;SDS_P2;PMS_P1;PMS_P2;Temp;Humidity;BMP_temperature;BMP_pressure;BME280_temperature;BME280_humidity;BME280_pressure;Samples;Min_cycle;Max_cycle;Signal;HPM_P1;HPM_P2
2023/09/28 00:07:08;;;;;;;;;;;;;;;17.07;100.00;101161.13;4996451;23;19945;-80
2023/09/28 00:09:57;;;;;;;;;;;;;;;17.06;100.00;101168.28;4973003;28;19941;-82
2023/09/28 00:12:46;;;;;;;;;;;;;;;17.05;100.00;101166.56;4959341;28;19930;-80
2023/09/28 00:15:32;;;;;;;;;;;;;;;17.05;100.00;101168.41;4959961;28;20380;-82
2023/09/28 00:18:23;;;;;;;;;;;;;;;17.03;100.00;101162.28;4955368;28;19929;-83
2023/09/28 00:21:10;;;;;;;;;;;;;;;17.02;100.00;101174.81;4972530;28;20004;-82
2023/09/28 00:23:55;;;;;;;;;;;;;;;17.00;100.00;101171.31;4961010;28;20025;-82
2023/09/28 00:26:42;;;;;;;;;;;;;;;16.99;100.00;101161.59;4973257;28;19929;-83
2023/09/28 00:29:28;;;;;;;;;;;;;;;17.00;100.00;101165.13;4960828;28;19934;-82
2023/09/28 00:32:13;;;;;;;;;;;;;;;17.01;100.00;101166.84;4976460;28;19922;-82
2023/09/28 00:34:59;;;;;;;;;;;;;;;17.01;100.00;101169.53;4958020;28;19941;-80
2023/09/28 00:37:45;;;;;;;;;;;;;;;17.01;100.00;101174.88;4973323;28;19956;-82
2023/09/28 00:40:33;;;;;;;;;;;;;;;16.97;100.00;101177.78;4969980;28;19934;-82
2023/09/28 00:43:26;;;;;;;;;;;;;;;16.96;100.00;101178.69;4959873;28;20473;-83
2023/09/28 00:46:14;;;;;;;;;;;;;;;16.92;100.00;101187.91;4973417;28;20432;-82
2023/09/28 00:49:03;;;;;;;;;;;;;;;16.90;100.00;101203.22;4970508;28;19935;-83
2023/09/28 00:51:49;;;;;;;;;;;;;;;16.87;100.00;101189.16;4972208;28;19930;-82
2023/09/28 00:54:35;;;;;;;;;;;;;;;16.85;100.00;101191.94;4971622;28;19942;-82
2023/09/28 00:57:29;;;;;;;;;;;;;;;16.83;100.00;101183.16;4962659;28;19936;-83
2023/09/28 01:00:29;;;;;;;;;;;;;;;16.80;100.00;101173.56;4971641;28;19948;-83
2023/09/28 01:03:16;;;;;;;;;;;;;;;16.77;100.00;101184.44;4950305;28;19941;-82
2023/09/28 01:06:07;;;;;;;;;;;;;;;16.73;100.00;101182.06;4955192;28;19977;-82
2023/09/28 01:08:57;;;;;;;;;;;;;;;16.70;100.00;101191.16;4953713;28;19934;-83
2023/09/28 01:11:45;;;;;;;;;;;;;;;16.65;100.00;101194.13;4947562;28;19934;-82
2023/09/28 01:14:32;;;;;;;;;;;;;;;16.62;100.00;101190.81;4954857;28;19927;-82
2023/09/28 01:17:18;;;;;;;;;;;;;;;16.56;100.00;101186.69;4947381;28;19973;-82
2023/09/28 01:20:25;;;;;;;;;;;;;;;16.54;100.00;101185.94;4949186;28;19953;-82
2023/09/28 01:23:13;;;;;;;;;;;;;;;16.49;100.00;101194.28;4954920;28;19957;-83
2023/09/28 01:25:59;;;;;;;;;;;;;;;16.46;100.00;101191.81;4954027;28;19937;-82
2023/09/28 01:28:50;;;;;;;;;;;;;;;16.41;100.00;101196.59;4955328;28;20048;-82
2023/09/28 01:31:35;;;;;;;;;;;;;;;16.36;100.00;101196.91;4961420;28;19934;-82
2023/09/28 01:34:24;;;;;;;;;;;;;;;16.32;100.00;101192.69;4947282;28;20306;-83
2023/09/28 01:37:09;;;;;;;;;;;;;;;16.28;100.00;101188.50;4942338;28;19926;-83
2023/09/28 01:39:55;;;;;;;;;;;;;;;16.26;100.00;101195.75;4948809;28;20025;-83
2023/09/28 01:42:58;;;;;;;;;;;;;;;16.23;100.00;101202.16;4956078;28;20528;-83
2023/09/28 01:45:46;;;;;;;;;;;;;;;16.20;100.00;101199.69;4962670;28;19980;-83
2023/09/28 01:48:33;;;;;;;;;;;;;;;16.17;100.00;101196.34;4958358;28;19934;-82
2023/09/28 01:51:18;;;;;;;;;;;;;;;16.13;100.00;101199.19;4953801;28;20459;-83
2023/09/28 01:54:14;;;;;;;;;;;;;;;16.09;100.00;101187.00;4957819;28;19961;-83
2023/09/28 01:56:59;;;;;;;;;;;;;;;16.07;100.00;101182.72;4943582;28;19933;-83
2023/09/28 01:59:45;;;;;;;;;;;;;;;16.03;100.00;101200.75;4952720;28;19930;-82
2023/09/28 02:02:34;;;;;;;;;;;;;;;16.00;100.00;101196.47;4953528;28;20780;-82
2023/09/28 02:05:25;;;;;;;;;;;;;;;15.97;100.00;101204.66;4950073;28;19941;-83
2023/09/28 02:08:11;;;;;;;;;;;;;;;15.96;100.00;101208.28;4946844;28;19930;-82
2023/09/28 02:10:56;;;;;;;;;;;;;;;15.96;100.00;101210.94;4950657;28;19926;-83
2023/09/28 02:13:42;;;;;;;;;;;;;;;15.97;100.00;101201.97;4942314;28;20157;-83
2023/09/28 02:16:28;;;;;;;;;;;;;;;15.98;100.00;101203.72;4950666;28;19934;-82
2023/09/28 02:19:14;;;;;;;;;;;;;;;16.04;100.00;101197.13;4951181;28;20373;-83
2023/09/28 02:21:59;;;;;;;;;;;;;;;16.11;100.00;101203.78;4951115;28;20017;-81
2023/09/28 02:24:46;;;;;;;;;;;;;;;16.14;100.00;101206.25;4942676;28;20032;-83
2023/09/28 02:27:35;;;;;;;;;;;;;;;16.18;100.00;101208.75;4936525;28;19936;-83
2023/09/28 02:30:22;;;;;;;;;;;;;;;16.18;100.00;101212.25;4948427;28;19977;-81
2023/09/28 02:33:07;;;;;;;;;;;;;;;16.22;100.00;101210.25;4946014;28;20481;-82
2023/09/28 02:35:53;;;;;;;;;;;;;;;16.27;100.00;101208.16;4948771;28;19981;-82
2023/09/28 02:38:39;;;;;;;;;;;;;;;16.27;100.00;101218.84;4949464;28;20622;-81
2023/09/28 02:41:24;;;;;;;;;;;;;;;16.29;100.00;101222.28;4950066;28;19945;-82
2023/09/28 02:44:10;;;;;;;;;;;;;;;16.29;100.00;101222.28;4950211;28;19930;-83
2023/09/28 02:46:56;;;;;;;;;;;;;;;16.29;100.00;101215.13;4939272;28;19962;-84
2023/09/28 02:49:43;;;;;;;;;;;;;;;16.31;100.00;101222.16;4948170;28;19930;-83
2023/09/28 02:52:29;;;;;;;;;;;;;;;16.29;100.00;101216.94;4949803;28;19969;-81
2023/09/28 02:55:16;;;;;;;;;;;;;;;16.28;100.00;101220.53;4949318;28;19934;-83
2023/09/28 02:58:03;;;;;;;;;;;;;;;16.28;100.00;101220.53;4939722;28;19940;-84
2023/09/28 03:00:48;;;;;;;;;;;;;;;16.29;100.00;101219.63;4949953;28;19934;-83
2023/09/28 03:03:34;;;;;;;;;;;;;;;16.29;100.00;101212.44;4948214;28;20035;-84
2023/09/28 03:06:20;;;;;;;;;;;;;;;16.28;100.00;101215.19;4941164;28;20025;-83
2023/09/28 03:09:08;;;;;;;;;;;;;;;16.27;100.00;101216.16;4949817;28;19976;-83
2023/09/28 03:11:55;;;;;;;;;;;;;;;16.27;100.00;101217.03;4946244;28;19953;-83
2023/09/28 03:14:40;;;;;;;;;;;;;;;16.30;100.00;101218.66;4939889;28;20084;-83
2023/09/28 03:17:26;;;;;;;;;;;;;;;16.29;100.00;101222.28;4951854;28;19989;-83
2023/09/28 03:20:17;;;;;;;;;;;;;;;16.27;100.00;101221.50;4950271;28;19954;-82
2023/09/28 03:23:04;;;;;;;;;;;;;;;16.25;100.00;101221.59;4951161;28;19926;-82
2023/09/28 03:25:50;;;;;;;;;;;;;;;16.26;100.00;101218.00;4949103;28;19937;-81
2023/09/28 03:28:36;;;;;;;;;;;;;;;16.25;100.00;101242.13;4952386;28;19922;-81
2023/09/28 03:31:27;;;;;;;;;;;;;;;16.25;100.00;101240.28;4953321;28;19930;-81
2023/09/28 03:34:13;;;;;;;;;;;;;;;16.25;100.00;101242.13;4952909;28;19957;-82
2023/09/28 03:37:03;;;;;;;;;;;;;;;16.26;100.00;101227.81;4953291;28;20297;-83
2023/09/28 03:39:50;;;;;;;;;;;;;;;16.28;100.00;101225.88;4952077;28;19977;-83
2023/09/28 03:42:39;;;;;;;;;;;;;;;16.28;100.00;101241.91;4940605;28;19930;-81
2023/09/28 03:45:28;;;;;;;;;;;;;;;16.28;100.00;101247.25;4954404;28;20009;-81
2023/09/28 03:48:13;;;;;;;;;;;;;;;16.27;100.00;101256.22;4956796;28;20048;-81
2023/09/28 03:50:59;;;;;;;;;;;;;;;16.28;100.00;101255.28;4940209;28;20009;-81
2023/09/28 03:53:48;;;;;;;;;;;;;;;16.30;100.00;101256.06;4952465;28;19933;-83
2023/09/28 03:56:42;;;;;;;;;;;;;;;16.31;100.00;101262.25;4953852;28;19941;-82
2023/09/28 03:59:28;;;;;;;;;;;;;;;16.29;100.00;101267.69;4955331;28;19933;-81
2023/09/28 04:02:16;;;;;;;;;;;;;;;16.27;100.00;101273.13;4951605;28;19930;-81
2023/09/28 04:05:02;;;;;;;;;;;;;;;16.26;100.00;101275.88;4953502;28;19987;-81
2023/09/28 04:07:49;;;;;;;;;;;;;;;16.28;100.00;101282.00;4956815;28;20017;-82
2023/09/28 04:10:37;;;;;;;;;;;;;;;16.28;100.00;101282.00;4945524;28;19927;-84
2023/09/28 04:13:22;;;;;;;;;;;;;;;16.25;100.00;101276.84;4947914;28;19930;-81
2023/09/28 04:16:08;;;;;;;;;;;;;;;16.24;100.00;101289.34;4954197;28;21966;-83
2023/09/28 04:18:54;;;;;;;;;;;;;;;16.22;100.00;101293.06;4945384;28;20419;-83
2023/09/28 04:21:40;;;;;;;;;;;;;;;16.18;100.00;101303.06;4956083;28;20330;-83
2023/09/28 04:24:25;;;;;;;;;;;;;;;16.14;100.00;101299.72;4945708;28;20362;-83
2023/09/28 04:27:11;;;;;;;;;;;;;;;16.11;100.00;101297.25;4955539;28;19918;-82
2023/09/28 04:29:57;;;;;;;;;;;;;;;16.07;100.00;101300.22;4958171;28;19970;-83
2023/09/28 04:32:42;;;;;;;;;;;;;;;16.06;100.00;101307.38;4953424;28;20160;-82
2023/09/28 04:35:28;;;;;;;;;;;;;;;16.01;100.00;101304.97;4958320;28;19942;-82
2023/09/28 04:38:17;;;;;;;;;;;;;;;15.97;100.00;101303.44;4943857;28;20401;-81
2023/09/28 04:41:02;;;;;;;;;;;;;;;15.92;100.00;101310.03;4951185;28;21865;-83
2023/09/28 04:43:48;;;;;;;;;;;;;;;15.86;100.00;101306.72;4955123;28;19922;-82
2023/09/28 04:46:34;;;;;;;;;;;;;;;15.82;100.00;101305.22;4949658;28;19931;-83
2023/09/28 04:49:19;;;;;;;;;;;;;;;15.77;100.00;101314.44;4955551;28;20039;-81
2023/09/28 04:52:05;;;;;;;;;;;;;;;15.72;100.00;101309.38;4949040;28;20017;-83
2023/09/28 04:54:51;;;;;;;;;;;;;;;15.65;100.00;101302.69;4939382;28;19980;-82
2023/09/28 04:57:43;;;;;;;;;;;;;;;15.60;100.00;101305.66;4952190;28;19934;-82
2023/09/28 05:00:28;;;;;;;;;;;;;;;15.56;100.00;101309.44;4941631;28;19945;-82
2023/09/28 05:03:14;;;;;;;;;;;;;;;15.52;100.00;101313.25;4945729;28;19934;-82
2023/09/28 05:05:59;;;;;;;;;;;;;;;15.49;100.00;101311.63;4951140;28;20020;-82
2023/09/28 05:08:45;;;;;;;;;;;;;;;15.45;100.00;101318.06;4952779;28;19926;-82
2023/09/28 05:11:34;;;;;;;;;;;;;;;15.42;100.00;101329.78;4939985;28;19926;-83
2023/09/28 05:14:24;;;;;;;;;;;;;;;15.38;100.00;101338.94;4936989;28;19929;-83
2023/09/28 05:17:09;;;;;;;;;;;;;;;15.36;100.00;101339.97;4951001;28;21174;-83
2023/09/28 05:19:55;;;;;;;;;;;;;;;15.31;100.00;101343.75;4950773;28;20316;-84
2023/09/28 05:22:43;;;;;;;;;;;;;;;15.28;100.00;101353.72;4952503;28;20373;-83
2023/09/28 05:25:29;;;;;;;;;;;;;;;15.25;100.00;101373.44;4953941;28;19929;-83
2023/09/28 05:28:14;;;;;;;;;;;;;;;15.21;100.00;101369.25;4954252;28;20381;-84
2023/09/28 05:31:00;;;;;;;;;;;;;;;15.17;100.00;101367.69;4953831;28;20031;-83
2023/09/28 05:33:45;;;;;;;;;;;;;;;15.14;100.00;101373.19;4953244;28;19941;-82
2023/09/28 05:36:31;;;;;;;;;;;;;;;15.12;100.00;101385.75;4951967;28;20294;-84
2023/09/28 05:39:18;;;;;;;;;;;;;;;15.08;100.00;101371.72;4941434;28;19955;-87
2023/09/28 05:42:04;;;;;;;;;;;;;;;15.06;100.00;101381.63;4940103;28;19937;-83
2023/09/28 05:44:50;;;;;;;;;;;;;;;15.03;100.00;101387.97;4949549;28;20396;-83
2023/09/28 05:47:35;;;;;;;;;;;;;;;15.03;100.00;101387.13;4951559;28;19930;-82
2023/09/28 05:50:24;;;;;;;;;;;;;;;15.03;100.00;101395.97;4937723;28;19927;-84
2023/09/28 05:53:10;;;;;;;;;;;;;;;15.04;100.00;101394.19;4943111;28;19934;-85
2023/09/28 05:55:55;;;;;;;;;;;;;;;15.04;100.00;101399.53;4942527;28;19957;-85
2023/09/28 05:58:41;;;;;;;;;;;;;;;15.03;100.00;101403.13;4958016;28;19930;-86
2023/09/28 06:01:28;;;;;;;;;;;;;;;15.02;100.00;101391.59;4955575;28;19934;-85
2023/09/28 06:04:14;;;;;;;;;;;;;;;14.99;100.00;101394.41;4956065;28;20049;-85
2023/09/28 06:06:59;;;;;;;;;;;;;;;14.99;100.00;101409.56;4954587;28;19934;-87
2023/09/28 06:09:45;;;;;;;;;;;;;;;15.00;100.00;101409.50;4956323;28;20028;-87
2023/09/28 06:12:31;;;;;;;;;;;;;;;15.01;100.00;101419.22;4946109;28;19966;-85
2023/09/28 06:15:16;;;;;;;;;;;;;;;15.04;100.00;101424.34;4956462;28;19991;-83
2023/09/28 06:18:04;;;;;;;;;;;;;;;15.11;100.00;101424.03;4942257;28;19927;-84
2023/09/28 06:20:50;;;;;;;;;;;;;;;15.15;100.00;101423.75;4947049;28;19941;-85
2023/09/28 06:23:36;;;;;;;;;;;;;;;15.21;100.00;101428.75;4938065;28;19926;-83
2023/09/28 06:26:24;;;;;;;;;;;;;;;15.26;100.00;101420.50;4964719;28;19941;-93
2023/09/28 06:29:13;;;;;;;;;;;;;;;15.33;100.00;101427.22;4953418;28;19942;-88
2023/09/28 06:31:59;;;;;;;;;;;;;;;15.37;100.00;101421.72;4953422;28;19929;-90
2023/09/28 06:35:06;;;;;;;;;;;;;;;15.40;100.00;101413.50;4951898;28;19928;-89
2023/09/28 06:37:53;;;;;;;;;;;;;;;15.46;100.00;101426.50;4962041;28;19984;-91
2023/09/28 06:40:38;;;;;;;;;;;;;;;15.48;100.00;101424.63;4947501;28;19965;-92
2023/09/28 06:43:25;;;;;;;;;;;;;;;15.53;100.00;101427.03;4945450;28;19934;-82
2023/09/28 06:46:10;;;;;;;;;;;;;;;15.57;100.00;101440.09;4953993;28;20851;-85
2023/09/28 06:48:59;;;;;;;;;;;;;;;15.60;100.00;101439.06;4956796;28;19938;-90
2023/09/28 06:51:45;;;;;;;;;;;;;;;15.63;100.00;101446.06;4939275;28;20028;-87
2023/09/28 06:54:32;;;;;;;;;;;;;;;15.66;100.00;101452.06;4942355;28;20017;-89
2023/09/28 06:57:19;;;;;;;;;;;;;;;15.70;100.00;101460.75;4938412;28;19935;-89
2023/09/28 07:00:08;;;;;;;;;;;;;;;15.74;100.00;101459.63;4953905;28;19926;-89
2023/09/28 07:02:55;;;;;;;;;;;;;;;15.80;100.00;101458.41;4951362;28;19968;-88
2023/09/28 07:05:40;;;;;;;;;;;;;;;15.86;100.00;101460.75;4935011;28;19942;-90
2023/09/28 07:08:26;;;;;;;;;;;;;;;15.91;100.00;101469.31;4944842;28;19938;-90
2023/09/28 07:11:14;;;;;;;;;;;;;;;15.97;100.00;101481.50;4947503;28;19954;-88
2023/09/28 07:14:00;;;;;;;;;;;;;;;16.01;100.00;101481.22;4942939;28;19928;-88
2023/09/28 07:16:48;;;;;;;;;;;;;;;16.07;100.00;101495.19;4939330;28;20323;-89
2023/09/28 07:19:36;;;;;;;;;;;;;;;16.12;100.00;101488.59;4937109;28;19949;-88
2023/09/28 07:22:22;;;;;;;;;;;;;;;16.18;100.00;101489.22;4953905;28;19926;-88
2023/09/28 07:25:09;;;;;;;;;;;;;;;16.20;100.00;101489.97;4940870;28;19927;-93
2023/09/28 07:27:57;;;;;;;;;;;;;;;16.26;100.00;101484.25;4954384;28;19941;-93
2023/09/28 07:30:45;;;;;;;;;;;;;;;16.32;100.00;101488.38;4948477;28;20146;-94
2023/09/28 07:33:31;;;;;;;;;;;;;;;16.36;100.00;101488.13;4958871;28;20024;-93
2023/09/28 07:36:17;;;;;;;;;;;;;;;16.40;100.00;101476.28;4948083;28;19930;-92
2023/09/28 07:39:03;;;;;;;;;;;;;;;16.46;100.00;101484.88;4954725;28;19926;-90
2023/09/28 07:41:51;;;;;;;;;;;;;;;16.52;100.00;101484.50;4954615;28;19965;-90
2023/09/28 07:44:40;;;;;;;;;;;;;;;16.57;100.00;101493.13;4944843;28;19937;-90
2023/09/28 07:47:25;;;;;;;;;;;;;;;16.61;100.00;101493.78;4936122;28;20949;-83
2023/09/28 07:50:14;;;;;;;;;;;;;;;16.66;100.00;101505.03;4934857;28;19936;-86
2023/09/28 07:53:02;;;;;;;;;;;;;;;16.69;100.00;101496.84;4946272;28;19930;-87
2023/09/28 07:55:48;;;;;;;;;;;;;;;16.72;100.00;101502.00;4938778;28;19922;-85
2023/09/28 07:58:33;;;;;;;;;;;;;;;16.77;100.00;101509.75;4937417;28;19930;-84
2023/09/28 08:01:19;;;;;;;;;;;;;;;16.82;100.00;101513.00;4948129;28;19940;-87
2023/09/28 08:04:05;;;;;;;;;;;;;;;16.87;100.00;101505.56;4948779;28;19926;-85
2023/09/28 08:06:51;;;;;;;;;;;;;;;16.93;100.00;101509.66;4936037;28;19938;-86
2023/09/28 08:09:37;;;;;;;;;;;;;;;16.97;100.00;101496.00;4912058;29;19931;-83
2023/09/28 08:12:23;;;;;;;;;;;;;;;17.06;100.00;101504.44;4908567;29;19938;-82
2023/09/28 08:15:09;;;;;;;;;;;;;;;17.11;100.00;101515.72;4922659;28;19931;-84
2023/09/28 08:17:55;;;;;;;;;;;;;;;17.15;100.00;101525.25;4910922;29;19942;-87
2023/09/28 08:20:40;;;;;;;;;;;;;;;17.20;100.00;101524.97;4907996;29;20581;-86
2023/09/28 08:23:26;;;;;;;;;;;;;;;17.23;100.00;101525.63;4908188;28;20056;-84
2023/09/28 08:26:12;;;;;;;;;;;;;;;17.27;100.00;101536.16;4908062;28;19990;-82
2023/09/28 08:29:04;;;;;;;;;;;;;;;17.28;100.00;101545.91;4912406;29;20841;-84
2023/09/28 08:31:51;;;;;;;;;;;;;;;17.31;100.00;101551.03;4914135;28;19927;-83
2023/09/28 08:34:36;;;;;;;;;;;;;;;17.32;100.00;101553.63;4913811;29;19931;-81
2023/09/28 08:37:24;;;;;;;;;;;;;;;17.34;100.00;101562.41;4928316;28;20012;-84
2023/09/28 08:40:13;;;;;;;;;;;;;;;17.36;100.00;101556.97;4904314;29;21914;-86
2023/09/28 08:42:59;;;;;;;;;;;;;;;17.38;100.00;101542.53;4915977;29;19978;-86
2023/09/28 08:45:45;;;;;;;;;;;;;;;17.39;100.00;101535.38;4915085;28;19927;-87
2023/09/28 08:48:31;;;;;;;;;;;;;;;17.42;100.00;101540.53;4915913;28;19927;-85
2023/09/28 08:51:18;;;;;;;;;;;;;;;17.42;100.00;101537.84;4918956;29;19941;-87
2023/09/28 08:54:05;;;;;;;;;;;;;;;17.44;100.00;101562.69;4919038;28;19931;-86
2023/09/28 08:56:52;;;;;;;;;;;;;;;17.46;100.00;101575.97;4909748;29;19934;-90
2023/09/28 08:59:45;;;;;;;;;;;;;;;17.49;100.00;101578.47;4910514;29;20800;-89
2023/09/28 09:02:31;;;;;;;;;;;;;;;17.51;100.00;101590.81;4901893;29;20091;-89
2023/09/28 09:05:16;;;;;;;;;;;;;;;17.54;100.00;101592.41;4919043;29;20499;-89
2023/09/28 09:08:02;;;;;;;;;;;;;;;17.56;100.00;101592.31;4926602;28;20029;-86
2023/09/28 09:10:49;;;;;;;;;;;;;;;17.59;100.00;101576.91;4931651;28;19939;-90
2023/09/28 09:13:57;;;;;;;;;;;;;;;17.64;100.00;101590.00;4922498;29;20071;-92
2023/09/28 09:16:42;;;;;;;;;;;;;;;17.68;100.00;101591.56;4941563;28;20013;-90
2023/09/28 09:19:31;;;;;;;;;;;;;;;17.70;100.00;101586.94;4932625;28;19934;-89
2023/09/28 09:22:25;;;;;;;;;;;;;;;17.73;100.00;101586.75;4924780;29;20641;-93
2023/09/28 09:25:10;;;;;;;;;;;;;;;17.77;100.00;101580.22;4921618;28;20370;-91
2023/09/28 09:27:56;;;;;;;;;;;;;;;17.81;100.00;101580.91;4930834;28;19936;-88
2023/09/28 09:30:42;;;;;;;;;;;;;;;17.87;100.00;101576.97;4932945;28;19933;-88
2023/09/28 09:33:28;;;;;;;;;;;;;;;17.92;100.00;101598.94;4933786;28;19931;-89
2023/09/28 09:36:16;;;;;;;;;;;;;;;17.95;100.00;101588.03;4917742;28;19934;-89
2023/09/28 09:39:02;;;;;;;;;;;;;;;17.98;100.00;101600.38;4930566;28;19930;-89
2023/09/28 09:41:49;;;;;;;;;;;;;;;18.01;100.00;101602.84;4937268;28;19978;-89
2023/09/28 09:44:34;;;;;;;;;;;;;;;18.04;100.00;101597.31;4923295;28;20009;-90
2023/09/28 09:47:20;;;;;;;;;;;;;;;18.10;100.00;101606.78;4930908;28;19935;-89
2023/09/28 09:50:07;;;;;;;;;;;;;;;18.11;100.00;101616.53;4930081;28;19927;-87
2023/09/28 09:52:56;;;;;;;;;;;;;;;18.08;100.00;101609.56;4922118;28;21880;-89
2023/09/28 09:55:44;;;;;;;;;;;;;;;18.08;100.00;101614.91;4935717;28;20393;-91
2023/09/28 09:58:37;;;;;;;;;;;;;;;18.07;100.00;101615.88;4944671;28;19929;-92
2023/09/28 10:01:23;;;;;;;;;;;;;;;18.03;100.00;101617.03;4936919;28;19931;-92
2023/09/28 10:04:12;;;;;;;;;;;;;;;17.99;100.00;101621.72;4940656;28;19930;-92
2023/09/28 10:07:00;;;;;;;;;;;;;;;17.99;100.00;101619.03;4927485;28;19940;-93
2023/09/28 10:09:46;;;;;;;;;;;;;;;17.98;100.00;101613.78;4951796;28;20823;-91
2023/09/28 10:12:32;;;;;;;;;;;;;;;17.97;100.00;101617.44;4942757;28;19926;-93
2023/09/28 10:15:18;;;;;;;;;;;;;;;18.00;100.00;101607.38;4948813;28;20000;-92
2023/09/28 10:18:05;;;;;;;;;;;;;;;18.05;100.00;101615.97;4948722;28;19931;-93
2023/09/28 10:20:51;;;;;;;;;;;;;;;18.09;100.00;101615.78;4955202;28;20017;-88
2023/09/28 10:23:47;;;;;;;;;;;;;;;18.13;100.00;101606.56;4948462;28;20820;-87
2023/09/28 10:26:33;;;;;;;;;;;;;;;18.15;100.00;101612.72;4948460;28;20003;-91
2023/09/28 10:29:23;;;;;;;;;;;;;;;18.16;100.00;101607.25;4937190;28;19956;-86
2023/09/28 10:32:30;;;;;;;;;;;;;;;18.19;100.00;101624.94;4945207;28;19953;-92
2023/09/28 10:35:19;;;;;;;;;;;;;;;18.24;100.00;101625.50;4945095;28;20421;-92
2023/09/28 10:38:17;;;;;;;;;;;;;;;18.31;100.00;101612.56;4958884;28;19934;-93
2023/09/28 10:41:05;;;;;;;;;;;;;;;18.42;100.00;101611.84;4951511;28;20458;-88
2023/09/28 10:43:51;;;;;;;;;;;;;;;18.47;100.00;101617.75;4950211;28;19941;-89
2023/09/28 10:46:41;;;;;;;;;;;;;;;18.47;100.00;101628.50;4949921;28;20064;-88
2023/09/28 10:49:27;;;;;;;;;;;;;;;18.43;100.00;101630.47;4946253;28;20018;-92
2023/09/28 10:52:14;;;;;;;;;;;;;;;18.45;100.00;101638.44;4953362;28;19949;-89
2023/09/28 10:55:00;;;;;;;;;;;;;;;18.49;100.00;101637.28;4940427;28;19926;-87
2023/09/28 10:57:46;;;;;;;;;;;;;;;18.56;100.00;101646.63;4950601;28;19927;-89
2023/09/28 11:00:32;;;;;;;;;;;;;;;18.64;100.00;101632.72;4949621;28;19926;-89
2023/09/28 11:03:24;;;;;;;;;;;;;;;18.70;100.00;101634.13;4937449;28;19938;-88
2023/09/28 11:06:11;;;;;;;;;;;;;;;18.73;100.00;101636.56;4920837;28;19934;-89
2023/09/28 11:08:59;;;;;;;;;;;;;;;18.77;100.00;101654.19;4944647;28;19930;-87
2023/09/28 11:11:49;;;;;;;;;;;;;;;18.79;100.00;101641.53;4945545;28;20637;-91
2023/09/28 11:14:36;;;;;;;;;;;;;;;18.83;100.00;101642.19;4936350;28;19933;-87
2023/09/28 11:17:24;;;;;;;;;;;;;;;18.83;100.00;101650.22;4948393;28;19922;-88
2023/09/28 11:20:13;;;;;;;;;;;;;;;18.81;100.00;101639.63;4952222;28;21908;-84
2023/09/28 11:22:59;;;;;;;;;;;;;;;18.77;100.00;101648.81;4936496;28;19981;-91
2023/09/28 11:25:44;;;;;;;;;;;;;;;18.75;100.00;101637.34;4937144;28;19926;-86
2023/09/28 11:28:30;;;;;;;;;;;;;;;18.70;100.00;101658.25;4939995;28;19930;-89
2023/09/28 11:31:16;;;;;;;;;;;;;;;18.70;100.00;101659.09;4951779;28;19926;-89
2023/09/28 11:34:05;;;;;;;;;;;;;;;18.73;100.00;101668.75;4953387;28;19981;-91
2023/09/28 11:36:52;;;;;;;;;;;;;;;18.76;100.00;101673.06;4949941;28;20296;-85
2023/09/28 11:43:01;;;;;;;;;;;;;;;18.69;100.00;101667.25;4988781;23;19930;-92
2023/09/28 11:45:48;;;;;;;;;;;;;;;18.67;100.00;101669.16;4989797;28;19930;-90
2023/09/28 11:48:34;;;;;;;;;;;;;;;18.68;100.00;101661.03;4981180;28;19941;-92
2023/09/28 11:51:19;;;;;;;;;;;;;;;18.71;100.00;101665.34;4983902;28;19929;-94
2023/09/28 11:54:06;;;;;;;;;;;;;;;18.71;100.00;101665.34;4987541;28;21916;-91
2023/09/28 11:56:52;;;;;;;;;;;;;;;18.71;100.00;101679.63;4997895;28;19929;-92
2023/09/28 11:59:38;;;;;;;;;;;;;;;18.66;100.00;101679.06;4985037;28;19922;-95
2023/09/28 12:02:24;;;;;;;;;;;;;;;18.63;100.00;101681.09;4981148;28;20045;-92
2023/09/28 12:05:13;;;;;;;;;;;;;;;18.61;100.00;101685.69;4975390;28;19925;-93
2023/09/28 12:07:59;;;;;;;;;;;;;;;18.65;100.00;101676.47;4978049;28;19987;-88
2023/09/28 12:10:44;;;;;;;;;;;;;;;18.66;100.00;101686.22;4976809;28;19936;-87
2023/09/28 12:13:33;;;;;;;;;;;;;;;18.66;100.00;101688.91;4974950;28;19950;-85
2023/09/28 12:16:22;;;;;;;;;;;;;;;18.66;100.00;101680.88;4984526;28;19929;-86
2023/09/28 12:19:08;;;;;;;;;;;;;;;18.62;100.00;101674.00;4970911;28;21361;-84
2023/09/28 12:21:53;;;;;;;;;;;;;;;18.66;100.00;101673.69;4986333;28;20084;-86
2023/09/28 12:24:40;;;;;;;;;;;;;;;18.70;100.00;101672.50;4972874;28;19933;-84
2023/09/28 12:27:27;;;;;;;;;;;;;;;18.72;100.00;101672.41;4973990;28;19944;-85
2023/09/28 12:30:16;;;;;;;;;;;;;;;18.72;100.00;101667.03;4981612;28;19929;-85
2023/09/28 12:33:05;;;;;;;;;;;;;;;18.75;100.00;101665.97;4969864;28;20074;-84
2023/09/28 12:35:51;;;;;;;;;;;;;;;18.78;100.00;101669.31;4984360;28;19987;-84
2023/09/28 12:38:37;;;;;;;;;;;;;;;18.82;100.00;101661.91;4985610;28;19984;-83
2023/09/28 12:41:26;;;;;;;;;;;;;;;18.81;100.00;101670.94;4982302;28;19937;-84
2023/09/28 12:44:13;;;;;;;;;;;;;;;18.76;100.00;101667.69;4981006;28;19933;-84
2023/09/28 12:46:59;;;;;;;;;;;;;;;18.72;100.00;101675.09;4969351;28;20438;-83
2023/09/28 12:49:45;;;;;;;;;;;;;;;18.74;100.00;101675.84;4974197;28;20030;-85
2023/09/28 12:52:31;;;;;;;;;;;;;;;18.78;100.00;101669.31;4988207;28;19949;-82
2023/09/28 12:55:17;;;;;;;;;;;;;;;18.75;100.00;101676.72;4984247;28;19969;-87
2023/09/28 12:58:03;;;;;;;;;;;;;;;18.70;100.00;101677.03;4959742;28;20500;-84
2023/09/28 13:00:48;;;;;;;;;;;;;;;18.69;100.00;101675.31;4985835;28;21776;-85
2023/09/28 13:03:34;;;;;;;;;;;;;;;18.70;100.00;101679.72;4984167;28;19934;-85
2023/09/28 13:06:20;;;;;;;;;;;;;;;18.68;100.00;101692.38;4981575;28;20252;-84
2023/09/28 13:09:06;;;;;;;;;;;;;;;18.65;100.00;101681.81;4981613;28;19975;-85
2023/09/28 13:11:52;;;;;;;;;;;;;;;18.62;100.00;101687.41;4969148;28;20557;-84
2023/09/28 13:14:37;;;;;;;;;;;;;;;18.61;100.00;101699.09;4979155;28;19925;-86
2023/09/28 13:17:23;;;;;;;;;;;;;;;18.56;100.00;101694.03;4962966;28;19926;-84
2023/09/28 13:20:10;;;;;;;;;;;;;;;18.52;100.00;101706.75;4983073;28;19933;-85
2023/09/28 13:22:57;;;;;;;;;;;;;;;18.48;100.00;101705.28;4983419;28;20486;-86
2023/09/28 13:25:43;;;;;;;;;;;;;;;18.46;100.00;101702.69;4981291;28;20711;-87
2023/09/28 13:28:28;;;;;;;;;;;;;;;18.43;100.00;101702.88;4970542;28;20428;-87
2023/09/28 13:31:14;;;;;;;;;;;;;;;18.40;100.00;101710.25;4959101;28;20036;-86
2023/09/28 13:34:00;;;;;;;;;;;;;;;18.35;100.00;101712.38;4969700;28;19922;-85
2023/09/28 13:36:46;;;;;;;;;;;;;;;18.34;100.00;101716.03;4985189;28;19925;-85
2023/09/28 13:39:35;;;;;;;;;;;;;;;18.30;100.00;101720.72;4962928;28;20242;-83
2023/09/28 13:42:21;;;;;;;;;;;;;;;18.26;100.00;101714.69;4986942;28;19936;-87
2023/09/28 13:45:07;;;;;;;;;;;;;;;18.21;100.00;101706.09;4983761;28;19936;-85
2023/09/28 13:47:55;;;;;;;;;;;;;;;18.18;100.00;101706.28;4985114;28;20004;-84
2023/09/28 13:50:43;;;;;;;;;;;;;;;18.14;100.00;101704.78;4970211;28;19937;-81
2023/09/28 13:53:29;;;;;;;;;;;;;;;18.12;100.00;101704.00;4985756;28;19987;-86
2023/09/28 13:56:15;;;;;;;;;;;;;;;18.13;100.00;101713.75;4960598;28;19929;-83
2023/09/28 13:59:09;;;;;;;;;;;;;;;18.10;100.00;101708.59;4985677;28;20148;-84
2023/09/28 14:01:55;;;;;;;;;;;;;;;18.09;100.00;101707.72;4975848;28;19929;-90
2023/09/28 14:04:40;;;;;;;;;;;;;;;18.09;100.00;101710.41;4989161;28;19937;-87
2023/09/28 14:07:27;;;;;;;;;;;;;;;18.10;100.00;101695.19;4961580;28;19945;-86
2023/09/28 14:10:18;;;;;;;;;;;;;;;18.08;100.00;101689.94;4962495;28;20380;-88
2023/09/28 14:13:04;;;;;;;;;;;;;;;18.10;100.00;101687.16;4964416;28;19938;-86
2023/09/28 14:15:50;;;;;;;;;;;;;;;18.08;100.00;101681.06;4974730;28;19930;-88
2023/09/28 14:18:36;;;;;;;;;;;;;;;18.08;100.00;101673.84;4972497;28;20020;-88